createdAt,value
2023-05-14T00:00:01.549Z,85.37
2023-05-14T00:02:28.218Z,85.58
2023-05-14T00:04:54.880Z,85.17
2023-05-14T00:07:21.426Z,85.51
2023-05-14T00:09:47.939Z,85.10
2023-05-14T00:12:14.560Z,85.46
2023-05-14T00:14:41.081Z,85.72
2023-05-14T00:17:07.602Z,85.46
2023-05-14T00:19:34.188Z,85.05
2023-05-14T00:22:00.750Z,85.69
2023-05-14T00:24:27.700Z,85.38
2023-05-14T00:26:54.410Z,85.49
2023-05-14T00:29:20.901Z,85.86
2023-05-14T00:31:47.473Z,85.41
2023-05-14T00:34:14.051Z,85.74
2023-05-14T00:36:40.551Z,85.77
2023-05-14T00:39:07.128Z,85.36
2023-05-14T00:41:33.672Z,85.72
2023-05-14T00:44:00.256Z,86.07
2023-05-14T00:46:27.574Z,85.71
2023-05-14T00:48:54.387Z,85.29
2023-05-14T00:51:20.966Z,86.00
2023-05-14T00:53:48.283Z,85.65
2023-05-14T00:56:16.250Z,85.91
2023-05-14T00:58:42.802Z,86.54
2023-05-14T01:01:09.545Z,86.12
2023-05-14T01:03:36.574Z,86.05
2023-05-14T01:06:26.071Z,86.16
2023-05-14T01:09:06.219Z,86.21
2023-05-14T01:11:42.615Z,86.18
2023-05-14T01:14:12.124Z,86.38
2023-05-14T01:16:40.274Z,86.02
2023-05-14T01:19:17.294Z,86.63
2023-05-14T01:21:44.036Z,86.60
2023-05-14T01:24:10.575Z,86.53
2023-05-14T01:26:37.487Z,86.94
2023-05-14T01:29:26.191Z,86.70
2023-05-14T01:31:55.585Z,87.00
2023-05-14T01:34:24.426Z,87.05
2023-05-14T01:36:52.120Z,87.21
2023-05-14T01:39:19.786Z,87.60
2023-05-14T01:41:46.672Z,87.73
2023-05-14T01:44:13.260Z,88.07
2023-05-14T01:46:39.858Z,87.71
2023-05-14T01:49:06.448Z,88.28
2023-05-14T01:51:33.029Z,87.98
2023-05-14T01:53:59.540Z,88.07
2023-05-14T01:56:26.192Z,88.55
2023-05-14T01:58:52.800Z,88.44
2023-05-14T02:01:19.393Z,88.30
2023-05-14T02:03:46.042Z,88.94
2023-05-14T02:06:12.693Z,89.08
2023-05-14T02:08:39.360Z,88.20
2023-05-14T02:11:05.917Z,88.79
2023-05-14T02:13:32.432Z,88.78
2023-05-14T02:15:58.991Z,89.27
2023-05-14T02:18:25.719Z,89.13
2023-05-14T02:20:52.283Z,89.55
2023-05-14T02:23:19.568Z,88.80
2023-05-14T02:25:50.272Z,88.82
2023-05-14T02:28:16.838Z,88.45
2023-05-14T02:30:43.385Z,88.84
2023-05-14T02:33:10.062Z,89.17
2023-05-14T02:35:37.413Z,89.30
2023-05-14T02:38:04.160Z,88.37
2023-05-14T02:40:30.721Z,88.96
2023-05-14T02:42:57.247Z,88.97
2023-05-14T02:45:24.402Z,88.48
2023-05-14T02:47:50.992Z,88.52
2023-05-14T02:50:17.696Z,88.29
2023-05-14T02:52:44.577Z,88.25
2023-05-14T02:55:11.830Z,87.61
2023-05-14T02:57:38.405Z,88.73
2023-05-14T03:00:06.048Z,87.99
2023-05-14T03:02:33.253Z,88.35
2023-05-14T03:05:00.380Z,88.36
2023-05-14T03:07:26.921Z,88.61
2023-05-14T03:09:53.460Z,88.16
2023-05-14T03:12:20.089Z,88.60
2023-05-14T03:14:46.713Z,89.20
2023-05-14T03:17:13.254Z,89.37
2023-05-14T03:19:39.810Z,89.46
2023-05-14T03:22:06.328Z,89.46
2023-05-14T03:24:32.914Z,90.01
2023-05-14T03:26:59.467Z,90.17
2023-05-14T03:29:26.007Z,90.42
2023-05-14T03:31:53.015Z,90.33
2023-05-14T03:34:19.578Z,90.67
2023-05-14T03:36:46.108Z,90.48
2023-05-14T03:39:15.484Z,90.81
2023-05-14T03:41:42.088Z,91.03
2023-05-14T03:44:08.610Z,91.36
2023-05-14T03:46:35.135Z,90.90
2023-05-14T03:49:01.782Z,90.99
2023-05-14T03:51:28.454Z,90.80
2023-05-14T03:53:55.026Z,90.41
2023-05-14T03:56:22.636Z,90.38
2023-05-14T03:58:49.192Z,89.86
2023-05-14T04:01:15.848Z,89.73
2023-05-14T04:03:42.495Z,89.53
2023-05-14T04:06:09.133Z,89.91
2023-05-14T04:08:35.709Z,89.36
2023-05-14T04:11:02.255Z,89.23
2023-05-14T04:13:28.888Z,89.58
2023-05-14T04:15:55.435Z,89.60
2023-05-14T04:18:21.982Z,89.48
2023-05-14T04:20:48.557Z,89.12
2023-05-14T04:23:15.061Z,89.08
2023-05-14T04:25:41.554Z,88.80
2023-05-14T04:28:08.101Z,88.73
2023-05-14T04:30:34.646Z,88.38
2023-05-14T04:33:01.447Z,88.11
2023-05-14T04:35:28.001Z,88.06
2023-05-14T04:37:54.563Z,87.83
2023-05-14T04:40:22.781Z,87.73
2023-05-14T04:42:49.565Z,87.79
2023-05-14T04:45:16.867Z,87.70
2023-05-14T04:47:45.088Z,87.91
2023-05-14T04:50:12.071Z,88.13
2023-05-14T04:52:39.164Z,87.69
2023-05-14T04:55:06.418Z,87.64
2023-05-14T04:57:32.957Z,88.35
2023-05-14T04:59:59.499Z,88.01
2023-05-14T05:02:26.149Z,88.02
2023-05-14T05:04:52.841Z,87.82
2023-05-14T05:07:21.729Z,88.19
2023-05-14T05:09:48.250Z,87.91
2023-05-14T05:12:14.786Z,87.72
2023-05-14T05:14:41.323Z,88.01
2023-05-14T05:17:07.998Z,87.51
2023-05-14T05:19:42.923Z,87.68
2023-05-14T05:22:10.394Z,87.37
2023-05-14T05:24:37.030Z,87.51
2023-05-14T05:27:03.793Z,87.49
2023-05-14T05:29:30.364Z,87.32
2023-05-14T05:31:57.101Z,87.36
2023-05-14T05:34:23.741Z,87.32
2023-05-14T05:36:50.288Z,87.39
2023-05-14T05:39:16.925Z,87.57
2023-05-14T05:41:44.333Z,86.80
2023-05-14T05:44:11.052Z,87.61
2023-05-14T05:46:37.761Z,87.20
2023-05-14T05:49:04.348Z,87.54
2023-05-14T05:51:31.523Z,87.34
2023-05-14T05:53:58.073Z,87.38
2023-05-14T05:56:24.590Z,87.31
2023-05-14T05:58:51.583Z,86.50
2023-05-14T06:01:18.198Z,86.83
2023-05-14T06:03:46.455Z,86.98
2023-05-14T06:06:15.570Z,86.95
2023-05-14T06:08:42.172Z,86.55
2023-05-14T06:11:08.958Z,86.47
2023-05-14T06:13:35.473Z,86.69
2023-05-14T06:16:02.102Z,87.20
2023-05-14T06:18:28.728Z,86.97
2023-05-14T06:20:56.771Z,86.29
2023-05-14T06:23:23.302Z,86.86
2023-05-14T06:25:50.856Z,86.75
2023-05-14T06:28:17.576Z,86.78
2023-05-14T06:30:44.152Z,86.72
2023-05-14T06:33:12.907Z,87.35
2023-05-14T06:35:39.687Z,87.20
2023-05-14T06:38:06.209Z,87.10
2023-05-14T06:40:32.711Z,86.75
2023-05-14T06:42:59.227Z,87.63
2023-05-14T06:45:25.764Z,87.89
2023-05-14T06:47:52.427Z,87.36
2023-05-14T06:50:19.398Z,87.89
2023-05-14T06:52:46.608Z,87.62
2023-05-14T06:55:13.169Z,88.10
2023-05-14T06:57:40.776Z,88.63
2023-05-14T07:00:08.579Z,88.05
2023-05-14T07:02:35.480Z,88.35
2023-05-14T07:05:03.080Z,88.61
2023-05-14T07:07:29.601Z,88.42
2023-05-14T07:09:56.120Z,88.69
2023-05-14T07:12:22.661Z,89.07
2023-05-14T07:14:49.427Z,88.96
2023-05-14T07:17:16.157Z,89.42
2023-05-14T07:19:42.725Z,88.94
2023-05-14T07:22:09.283Z,89.42
2023-05-14T07:24:35.794Z,89.36
2023-05-14T07:27:02.513Z,89.65
2023-05-14T07:29:30.341Z,89.65
2023-05-14T07:31:56.904Z,89.47
2023-05-14T07:34:23.393Z,89.22
2023-05-14T07:36:50.060Z,89.79
2023-05-14T07:39:16.638Z,89.82
2023-05-14T07:41:43.432Z,89.97
2023-05-14T07:44:10.025Z,90.14
2023-05-14T07:46:37.324Z,90.38
2023-05-14T07:49:03.849Z,90.47
2023-05-14T07:51:30.459Z,89.86
2023-05-14T07:53:57.002Z,90.10
2023-05-14T07:56:23.591Z,89.68
2023-05-14T07:58:50.892Z,90.31
2023-05-14T08:01:17.980Z,89.58
2023-05-14T08:03:44.638Z,89.26
2023-05-14T08:06:11.717Z,89.77
2023-05-14T08:08:38.323Z,88.83
2023-05-14T08:11:05.639Z,89.30
2023-05-14T08:13:32.434Z,89.73
2023-05-14T08:15:58.946Z,89.59
2023-05-14T08:18:25.498Z,89.61
2023-05-14T08:20:52.106Z,89.87
2023-05-14T08:23:18.712Z,89.48
2023-05-14T08:25:45.285Z,89.81
2023-05-14T08:28:12.178Z,89.24
2023-05-14T08:30:38.783Z,89.43
2023-05-14T08:33:05.593Z,89.76
2023-05-14T08:35:32.208Z,89.82
2023-05-14T08:37:58.805Z,89.46
2023-05-14T08:40:26.547Z,89.64
2023-05-14T08:42:54.305Z,88.88
2023-05-14T08:45:25.738Z,89.32
2023-05-14T08:47:52.968Z,89.05
2023-05-14T08:50:23.557Z,89.24
2023-05-14T08:52:51.186Z,88.91
2023-05-14T08:55:18.614Z,88.74
2023-05-14T08:57:46.463Z,88.69
2023-05-14T09:00:14.252Z,89.01
2023-05-14T09:02:41.735Z,88.89
2023-05-14T09:05:12.533Z,88.69
2023-05-14T09:07:39.301Z,88.68
2023-05-14T09:10:06.820Z,88.68
2023-05-14T09:12:33.337Z,88.60
2023-05-14T09:14:59.842Z,88.46
2023-05-14T09:17:29.673Z,89.11
2023-05-14T09:19:56.367Z,89.33
2023-05-14T09:22:22.945Z,89.21
2023-05-14T09:25:07.421Z,89.22
2023-05-14T09:27:34.027Z,89.06
2023-05-14T09:30:11.517Z,89.67
2023-05-14T09:32:40.324Z,89.67
2023-05-14T09:35:17.241Z,89.35
2023-05-14T09:37:49.208Z,89.71
2023-05-14T09:40:16.706Z,89.24
2023-05-14T09:42:43.336Z,89.29
2023-05-14T09:45:10.601Z,89.60
2023-05-14T09:47:38.315Z,89.28
2023-05-14T09:50:06.628Z,88.92
2023-05-14T09:52:33.692Z,88.85
2023-05-14T09:55:01.400Z,88.91
2023-05-14T09:57:28.256Z,89.15
2023-05-14T09:59:54.779Z,89.61
2023-05-14T10:02:26.531Z,89.16
2023-05-14T10:04:54.677Z,89.09
2023-05-14T10:07:30.800Z,88.88
2023-05-14T10:10:03.797Z,88.76
2023-05-14T10:12:34.622Z,88.66
2023-05-14T10:15:12.305Z,88.60
2023-05-14T10:17:41.050Z,89.02
2023-05-14T10:20:11.929Z,88.88
2023-05-14T10:22:38.897Z,88.19
2023-05-14T10:25:06.941Z,88.95
2023-05-14T10:27:33.889Z,88.94
2023-05-14T10:30:00.417Z,88.80
2023-05-14T10:32:27.253Z,89.19
2023-05-14T10:34:54.113Z,88.98
2023-05-14T10:37:25.452Z,88.93
2023-05-14T10:40:00.189Z,88.92
2023-05-14T10:42:40.782Z,88.60
2023-05-14T10:45:09.204Z,88.70
2023-05-14T10:47:38.238Z,88.82
2023-05-14T10:50:10.560Z,89.00
2023-05-14T10:52:37.415Z,89.50
2023-05-14T10:55:10.162Z,89.16
2023-05-14T10:57:38.678Z,89.08
2023-05-14T11:00:10.813Z,89.33
2023-05-14T11:02:42.551Z,89.49
2023-05-14T11:05:13.688Z,90.13
2023-05-14T11:07:42.385Z,90.11
2023-05-14T11:10:11.709Z,89.68
2023-05-14T11:12:43.677Z,90.18
2023-05-14T11:15:14.076Z,90.08
2023-05-14T11:17:42.157Z,89.99
2023-05-14T11:20:09.701Z,90.19
2023-05-14T11:22:37.381Z,90.70
2023-05-14T11:25:04.801Z,90.51
2023-05-14T11:27:34.482Z,90.40
2023-05-14T11:30:01.178Z,90.45
2023-05-14T11:32:27.944Z,90.26
2023-05-14T11:34:54.688Z,90.41
2023-05-14T11:37:21.243Z,90.61
2023-05-14T11:39:52.643Z,90.82
2023-05-14T11:42:20.272Z,90.82
2023-05-14T11:44:51.951Z,90.61
2023-05-14T11:47:20.372Z,90.37
2023-05-14T11:49:47.678Z,90.56
2023-05-14T11:52:16.412Z,90.65
2023-05-14T11:54:44.462Z,89.98
2023-05-14T11:57:12.885Z,90.65
2023-05-14T11:59:39.642Z,90.46
2023-05-14T12:02:18.544Z,89.88
2023-05-14T12:04:50.719Z,89.29
2023-05-14T12:07:17.415Z,90.13
2023-05-14T12:09:51.918Z,90.38
2023-05-14T12:12:22.414Z,90.27
2023-05-14T12:14:50.313Z,89.83
2023-05-14T12:17:18.420Z,89.43
2023-05-14T12:19:46.641Z,89.52
2023-05-14T12:22:18.936Z,89.82
2023-05-14T12:24:59.316Z,89.20
2023-05-14T12:27:27.780Z,89.03
2023-05-14T12:32:35.874Z,89.20
2023-05-14T12:35:02.515Z,89.68
2023-05-14T12:37:31.158Z,89.32
2023-05-14T12:39:57.867Z,90.19
2023-05-14T12:42:24.467Z,89.82
2023-05-14T12:44:50.983Z,89.87
2023-05-14T12:47:17.601Z,90.31
2023-05-14T12:49:44.121Z,90.53
2023-05-14T12:54:42.911Z,90.48
2023-05-14T12:57:09.593Z,90.85
2023-05-14T12:59:36.258Z,90.87
2023-05-14T13:02:02.796Z,90.62
2023-05-14T13:04:29.398Z,90.58
2023-05-14T13:06:56.033Z,90.46
2023-05-14T13:09:22.595Z,90.33
2023-05-14T13:11:49.129Z,90.12
2023-05-14T13:14:15.685Z,90.11
2023-05-14T13:16:42.552Z,89.80
2023-05-14T13:19:09.392Z,90.06
2023-05-14T13:21:36.097Z,90.61
2023-05-14T13:24:02.805Z,90.47
2023-05-14T13:26:29.384Z,90.56
2023-05-14T13:28:56.281Z,90.94
2023-05-14T13:31:22.990Z,91.30
2023-05-14T13:33:49.569Z,90.95
2023-05-14T13:36:16.408Z,91.12
2023-05-14T13:38:43.127Z,91.05
2023-05-14T13:41:09.728Z,91.52
2023-05-14T13:43:36.304Z,91.27
2023-05-14T13:46:05.309Z,91.48
2023-05-14T13:48:32.526Z,91.41
2023-05-14T13:50:59.264Z,91.15
2023-05-14T13:53:26.209Z,91.68
2023-05-14T13:56:01.264Z,91.06
2023-05-14T13:58:28.075Z,91.38
2023-05-14T14:00:54.715Z,91.69
2023-05-14T14:03:21.422Z,91.30
2023-05-14T14:05:48.147Z,91.33
2023-05-14T14:08:23.256Z,91.40
2023-05-14T14:10:50.953Z,91.24
2023-05-14T14:13:17.513Z,91.08
2023-05-14T14:15:44.366Z,90.98
2023-05-14T14:18:11.108Z,90.66
2023-05-14T14:20:38.269Z,91.45
2023-05-14T14:23:05.122Z,91.02
2023-05-14T14:25:31.717Z,90.83
2023-05-14T14:27:58.426Z,91.00
2023-05-14T14:30:25.058Z,91.27
2023-05-14T14:32:51.655Z,91.09
2023-05-14T14:35:19.521Z,90.85
2023-05-14T14:37:49.390Z,90.26
2023-05-14T14:40:17.245Z,90.48
2023-05-14T14:42:44.389Z,90.49
2023-05-14T14:45:11.945Z,90.58
2023-05-14T14:47:38.807Z,90.14
2023-05-14T14:50:06.386Z,90.60
2023-05-14T14:52:33.099Z,91.25
2023-05-14T14:54:59.644Z,90.90
2023-05-14T14:57:26.890Z,90.43
2023-05-14T14:59:53.491Z,91.14
2023-05-14T15:02:20.348Z,91.40
2023-05-14T15:04:46.996Z,91.01
2023-05-14T15:07:15.914Z,90.29
2023-05-14T15:09:42.470Z,90.84
2023-05-14T15:12:10.221Z,91.26
2023-05-14T15:14:36.771Z,91.79
2023-05-14T15:17:03.565Z,91.38
2023-05-14T15:19:31.806Z,91.16
2023-05-14T15:21:58.548Z,91.65
2023-05-14T15:24:26.293Z,91.81
2023-05-14T15:26:53.759Z,91.69
2023-05-14T15:29:20.528Z,91.69
2023-05-14T15:31:47.281Z,91.87
2023-05-14T15:34:13.886Z,91.78
2023-05-14T15:36:40.644Z,91.30
2023-05-14T15:39:10.218Z,91.60
2023-05-14T15:41:36.917Z,91.26
2023-05-14T15:44:03.534Z,91.29
2023-05-14T15:46:30.612Z,91.24
2023-05-14T15:48:58.036Z,91.55
2023-05-14T15:51:24.760Z,91.81
2023-05-14T15:53:53.567Z,91.63
2023-05-14T15:56:21.129Z,91.90
2023-05-14T15:58:48.294Z,92.01
2023-05-14T16:01:14.877Z,91.93
2023-05-14T16:03:41.704Z,92.34
2023-05-14T16:06:08.344Z,91.88
2023-05-14T16:08:34.930Z,92.33
2023-05-14T16:11:01.463Z,92.53
2023-05-14T16:13:27.998Z,92.36
2023-05-14T16:15:54.896Z,92.08
2023-05-14T16:18:22.364Z,92.07
2023-05-14T16:20:48.912Z,91.91
2023-05-14T16:23:15.520Z,92.51
2023-05-14T16:25:42.118Z,92.50
2023-05-14T16:28:08.854Z,92.41
2023-05-14T16:30:35.428Z,92.12
2023-05-14T16:33:02.020Z,92.60
2023-05-14T16:35:28.712Z,92.86
2023-05-14T16:37:56.154Z,93.34
2023-05-14T16:40:23.752Z,92.96
2023-05-14T16:42:51.244Z,93.34
2023-05-14T16:45:18.054Z,92.83
2023-05-14T16:47:44.679Z,92.52
2023-05-14T16:50:11.680Z,92.57
2023-05-14T16:52:38.199Z,92.44
2023-05-14T16:55:05.380Z,93.28
2023-05-14T16:57:32.093Z,93.33
2023-05-14T16:59:58.688Z,93.25
2023-05-14T17:02:25.561Z,93.36
2023-05-14T17:04:54.162Z,93.73
2023-05-14T17:07:20.792Z,93.07
2023-05-14T17:09:47.341Z,93.49
2023-05-14T17:12:13.982Z,93.52
2023-05-14T17:14:40.563Z,92.98
2023-05-14T17:17:07.071Z,93.84
2023-05-14T17:19:33.773Z,93.28
2023-05-14T17:22:00.597Z,93.60
2023-05-14T17:24:27.157Z,93.28
2023-05-14T17:26:53.779Z,93.63
2023-05-14T17:29:20.651Z,93.87
2023-05-14T17:31:48.285Z,93.62
2023-05-14T17:34:14.947Z,93.94
2023-05-14T17:36:41.623Z,93.90
2023-05-14T17:39:08.198Z,93.19
2023-05-14T17:41:34.975Z,93.72
2023-05-14T17:44:01.528Z,93.80
2023-05-14T17:46:28.135Z,93.78
2023-05-14T17:48:54.722Z,94.60
2023-05-14T17:51:21.269Z,93.95
2023-05-14T17:53:47.852Z,93.84
2023-05-14T17:56:15.483Z,94.27
2023-05-14T17:58:42.035Z,94.35
2023-05-14T18:01:08.696Z,94.03
2023-05-14T18:03:35.534Z,94.06
2023-05-14T18:06:02.168Z,94.20
2023-05-14T18:08:28.733Z,93.99
2023-05-14T18:10:55.321Z,94.21
2023-05-14T18:13:21.875Z,94.31
2023-05-14T18:15:48.441Z,94.63
2023-05-14T18:18:18.637Z,94.60
2023-05-14T18:20:45.195Z,94.99
2023-05-14T18:23:11.705Z,94.86
2023-05-14T18:25:39.387Z,95.26
2023-05-14T18:28:06.733Z,94.91
2023-05-14T18:30:33.713Z,94.64
2023-05-14T18:33:00.581Z,94.56
2023-05-14T18:35:27.982Z,94.63
2023-05-14T18:37:54.967Z,95.30
2023-05-14T18:40:21.485Z,95.26
2023-05-14T18:42:48.247Z,95.11
2023-05-14T18:45:14.905Z,94.93
2023-05-14T18:47:41.615Z,94.59
2023-05-14T18:50:08.713Z,95.07
2023-05-14T18:52:35.358Z,94.19
2023-05-14T18:55:02.061Z,94.38
2023-05-14T18:57:37.631Z,94.64
2023-05-14T19:00:05.169Z,94.28
2023-05-14T19:02:31.788Z,94.91
2023-05-14T19:04:58.438Z,95.11
2023-05-14T19:07:25.013Z,95.16
2023-05-14T19:09:51.929Z,94.99
2023-05-14T19:12:18.539Z,94.36
2023-05-14T19:14:45.050Z,94.44
2023-05-14T19:17:11.744Z,94.79
2023-05-14T19:19:39.323Z,94.65
2023-05-14T19:22:06.363Z,94.56
2023-05-14T19:24:32.929Z,95.09
2023-05-14T19:26:59.579Z,94.84
2023-05-14T19:29:26.115Z,94.62
2023-05-14T19:31:52.708Z,95.28
2023-05-14T19:34:19.301Z,94.42
2023-05-14T19:36:45.888Z,94.61
2023-05-14T19:39:12.411Z,94.91
2023-05-14T19:41:39.086Z,95.12
2023-05-14T19:44:05.640Z,95.33
2023-05-14T19:46:32.270Z,95.34
2023-05-14T19:48:58.908Z,95.07
2023-05-14T19:51:25.552Z,95.22
2023-05-14T19:53:52.057Z,95.17
2023-05-14T19:56:18.599Z,95.07
2023-05-14T19:58:45.190Z,95.61
2023-05-14T20:01:12.086Z,95.91
2023-05-14T20:03:38.889Z,95.66
2023-05-14T20:06:07.077Z,95.78
2023-05-14T20:08:33.784Z,95.41
2023-05-14T20:11:00.442Z,95.69
2023-05-14T20:13:27.056Z,95.78
2023-05-14T20:15:55.161Z,95.87
2023-05-14T20:18:21.935Z,95.70
2023-05-14T20:20:49.076Z,95.49
2023-05-14T20:23:15.974Z,96.09
2023-05-14T20:25:43.142Z,95.82
2023-05-14T20:28:10.297Z,96.03
2023-05-14T20:30:37.020Z,96.42
2023-05-14T20:33:04.125Z,96.38
2023-05-14T20:35:31.153Z,95.98
2023-05-14T20:37:57.708Z,96.92
2023-05-14T20:40:24.816Z,96.65
2023-05-14T20:42:52.173Z,97.15
2023-05-14T20:45:19.028Z,96.63
2023-05-14T20:47:45.670Z,97.23
2023-05-14T20:50:13.696Z,96.69
2023-05-14T20:52:40.418Z,97.14
2023-05-14T20:55:07.667Z,97.07
2023-05-14T20:57:34.307Z,97.24
2023-05-14T21:00:02.081Z,97.05
2023-05-14T21:02:28.711Z,97.40
2023-05-14T21:04:55.391Z,97.19
2023-05-14T21:07:21.968Z,97.31
2023-05-14T21:09:52.302Z,97.35
2023-05-14T21:12:19.453Z,97.50
2023-05-14T21:14:46.083Z,97.59
2023-05-14T21:17:12.670Z,97.38
2023-05-14T21:19:39.252Z,97.55
2023-05-14T21:22:06.589Z,97.53
2023-05-14T21:24:33.139Z,97.08
2023-05-14T21:26:59.703Z,97.00
2023-05-14T21:29:26.213Z,97.16
2023-05-14T21:31:52.807Z,97.94
2023-05-14T21:34:19.413Z,97.31
2023-05-14T21:36:46.029Z,97.69
2023-05-14T21:39:12.563Z,97.45
2023-05-14T21:41:39.060Z,97.59
2023-05-14T21:44:05.615Z,97.11
2023-05-14T21:46:32.218Z,97.49
2023-05-14T21:48:58.818Z,97.44
2023-05-14T21:51:25.503Z,97.17
2023-05-14T21:53:52.104Z,97.83
2023-05-14T21:56:18.672Z,97.64
2023-05-14T21:58:45.346Z,97.23
2023-05-14T22:01:11.924Z,97.21
2023-05-14T22:03:38.603Z,97.49
2023-05-14T22:06:05.842Z,97.76
2023-05-14T22:08:32.409Z,97.34
2023-05-14T22:10:59.008Z,97.54
2023-05-14T22:13:25.624Z,97.19
2023-05-14T22:16:01.504Z,97.66
2023-05-14T22:18:38.620Z,97.45
2023-05-14T22:21:05.269Z,97.93
2023-05-14T22:23:31.906Z,97.57
2023-05-14T22:25:58.453Z,97.30
2023-05-14T22:28:25.013Z,98.13
2023-05-14T22:30:51.549Z,97.36
2023-05-14T22:33:19.365Z,97.53
2023-05-14T22:35:46.146Z,97.36
2023-05-14T22:38:13.959Z,97.16
2023-05-14T22:40:40.558Z,97.60
2023-05-14T22:43:07.089Z,97.49
2023-05-14T22:45:33.632Z,96.82
2023-05-14T22:48:00.349Z,97.12
2023-05-14T22:50:26.932Z,96.91
2023-05-14T22:52:53.470Z,97.13
2023-05-14T22:55:20.058Z,96.98
2023-05-14T22:57:46.734Z,97.34
2023-05-14T23:00:13.873Z,97.44
2023-05-14T23:02:40.658Z,96.73
2023-05-14T23:05:08.772Z,97.63
2023-05-14T23:07:35.632Z,97.77
2023-05-14T23:10:02.324Z,97.46
2023-05-14T23:12:28.911Z,97.06
2023-05-14T23:14:55.511Z,97.45
2023-05-14T23:17:22.214Z,96.89
2023-05-14T23:19:48.880Z,97.38
2023-05-14T23:22:15.578Z,97.38
2023-05-14T23:24:42.075Z,97.11
2023-05-14T23:27:08.701Z,96.88
2023-05-14T23:29:35.584Z,97.34
2023-05-14T23:32:02.177Z,97.49
2023-05-14T23:34:28.844Z,97.20
2023-05-14T23:36:55.738Z,96.35
2023-05-14T23:39:22.576Z,96.54
2023-05-14T23:41:49.082Z,96.92
2023-05-14T23:44:15.589Z,96.42
2023-05-14T23:46:42.140Z,97.08
2023-05-14T23:49:08.781Z,96.64
2023-05-14T23:51:36.539Z,96.97
2023-05-14T23:54:03.322Z,96.71
2023-05-14T23:56:29.888Z,96.88
2023-05-14T23:58:56.764Z,96.96
